Time;durP1;ratioP1;P1;durP2;ratioP2;P2;SDS_P1;SDS_P2;PMS_P1;PMS_P2;Temp;Humidity;BMP_temperature;BMP_pressure;BME280_temperature;BME280_humidity;BME280_pressure;Samples;Min_cycle;Max_cycle;Signal;HPM_P1;HPM_P2
2022/10/24 03:34:27;;;;;;;;;;;;;;;5.27;100.00;99002.13;5054931;23;20364;-91
2022/10/24 03:36:52;;;;;;;;;;;;;;;5.28;100.00;98999.47;4994764;28;19956;-90
2022/10/24 03:39:17;;;;;;;;;;;;;;;5.24;100.00;99000.47;5005703;28;20370;-91
2022/10/24 03:41:42;;;;;;;;;;;;;;;5.29;100.00;99002.94;5007864;28;19922;-86
2022/10/24 03:44:08;;;;;;;;;;;;;;;5.30;100.00;99003.78;4994312;28;20013;-88
2022/10/24 03:46:33;;;;;;;;;;;;;;;5.32;100.00;99009.88;5011766;28;19922;-88
2022/10/24 03:48:58;;;;;;;;;;;;;;;5.35;100.00;99004.50;4993004;28;19940;-87
2022/10/24 03:51:24;;;;;;;;;;;;;;;5.36;100.00;99003.59;4995787;28;19913;-89
2022/10/24 03:53:49;;;;;;;;;;;;;;;5.40;100.00;99008.69;5013659;28;19967;-90
2022/10/24 03:56:14;;;;;;;;;;;;;;;5.33;100.00;99004.56;4998130;28;19913;-87
2022/10/24 03:58:39;;;;;;;;;;;;;;;5.36;100.00;99006.22;4997995;28;20001;-90
2022/10/24 04:01:05;;;;;;;;;;;;;;;5.32;100.00;99010.72;5016099;28;19941;-91
2022/10/24 04:03:30;;;;;;;;;;;;;;;5.52;100.00;99009.16;4996985;28;19952;-92
2022/10/24 04:05:56;;;;;;;;;;;;;;;5.52;100.00;99014.44;4997830;28;20284;-88
2022/10/24 04:08:21;;;;;;;;;;;;;;;5.38;100.00;99010.50;5014189;28;19928;-87
2022/10/24 04:10:47;;;;;;;;;;;;;;;5.33;100.00;99016.81;5016803;28;19921;-88
2022/10/24 04:13:13;;;;;;;;;;;;;;;5.42;100.00;99024.41;5017529;28;20478;-89
2022/10/24 04:15:38;;;;;;;;;;;;;;;5.43;100.00;99023.50;5017325;28;20000;-89
2022/10/24 04:18:03;;;;;;;;;;;;;;;5.49;100.00;99027.66;5033801;28;19974;-89
2022/10/24 04:20:28;;;;;;;;;;;;;;;5.51;100.00;99031.13;5033490;28;20364;-90
2022/10/24 04:22:54;;;;;;;;;;;;;;;5.52;100.00;99038.06;5017850;28;19917;-91
2022/10/24 04:25:19;;;;;;;;;;;;;;;5.45;100.00;99038.28;5017563;28;20007;-92
2022/10/24 04:27:45;;;;;;;;;;;;;;;5.51;100.00;99047.75;5035009;28;19932;-90
2022/10/24 04:30:11;;;;;;;;;;;;;;;5.52;100.00;99043.34;5017525;28;19959;-92
2022/10/24 04:32:37;;;;;;;;;;;;;;;5.83;100.00;99046.63;5015952;28;19928;-90
2022/10/24 04:35:03;;;;;;;;;;;;;;;6.41;100.00;99049.84;5034806;28;20284;-91
2022/10/24 04:37:28;;;;;;;;;;;;;;;6.77;100.00;99046.75;5034816;28;19928;-91
2022/10/24 04:39:54;;;;;;;;;;;;;;;6.98;100.00;99043.25;5017217;28;19960;-92
2022/10/24 04:42:20;;;;;;;;;;;;;;;7.13;100.00;99041.75;5017315;28;19923;-93
2022/10/24 04:44:45;;;;;;;;;;;;;;;7.29;100.00;99044.63;5017142;28;19971;-91
2022/10/24 04:47:10;;;;;;;;;;;;;;;7.37;100.00;99041.69;5015676;28;19917;-91
2022/10/24 04:49:35;;;;;;;;;;;;;;;7.48;100.00;99042.09;5017091;28;19983;-93
2022/10/24 04:52:01;;;;;;;;;;;;;;;7.59;100.00;99039.00;5016862;28;19926;-90
2022/10/24 04:54:26;;;;;;;;;;;;;;;7.67;100.00;99043.97;5016699;28;19952;-90
2022/10/24 04:56:51;;;;;;;;;;;;;;;7.72;100.00;99047.25;5016813;28;19924;-90
2022/10/24 04:59:16;;;;;;;;;;;;;;;7.78;100.00;99053.09;5016615;28;19956;-90
2022/10/24 05:01:42;;;;;;;;;;;;;;;7.84;100.00;99051.16;5016337;28;19924;-92
2022/10/24 07:58:48;;;;;;;;;;;;;;;5.78;100.00;99108.19;5147060;23;19972;-86
2022/10/24 08:01:14;;;;;;;;;;;;;;;5.82;100.00;99109.78;5024120;28;19948;-88
2022/10/24 08:03:40;;;;;;;;;;;;;;;5.77;100.00;99107.28;5016475;28;19922;-86
2022/10/24 08:06:07;;;;;;;;;;;;;;;5.80;100.00;99107.19;5007717;28;20499;-85
2022/10/24 08:08:35;;;;;;;;;;;;;;;5.80;100.00;99101.94;5025309;28;20430;-86
2022/10/24 08:11:05;;;;;;;;;;;;;;;5.82;100.00;99089.63;5007088;28;19921;-86
2022/10/24 08:13:30;;;;;;;;;;;;;;;5.88;100.00;99082.41;5006393;28;19929;-86
2022/10/24 08:15:55;;;;;;;;;;;;;;;5.87;100.00;99097.34;5018507;28;19913;-86
2022/10/24 08:18:21;;;;;;;;;;;;;;;5.87;100.00;99086.84;5043081;28;19951;-86
2022/10/24 08:20:55;;;;;;;;;;;;;;;5.86;100.00;99095.63;5026174;28;19920;-87
2022/10/24 08:23:20;;;;;;;;;;;;;;;5.92;100.00;99100.66;5018510;28;20015;-87
2022/10/24 08:25:45;;;;;;;;;;;;;;;5.95;100.00;99095.31;5021639;28;20008;-87
2022/10/24 08:28:11;;;;;;;;;;;;;;;5.87;100.00;99088.59;5041152;28;19925;-86
2022/10/24 08:30:36;;;;;;;;;;;;;;;5.86;100.00;99086.88;5026342;28;19927;-87
2022/10/24 08:33:01;;;;;;;;;;;;;;;5.86;100.00;99087.72;5021144;28;19921;-86
2022/10/24 08:35:27;;;;;;;;;;;;;;;5.91;100.00;99093.69;5042688;28;19928;-87
2022/10/24 08:37:52;;;;;;;;;;;;;;;5.90;100.00;99091.97;5021247;28;20070;-86
2022/10/24 08:40:18;;;;;;;;;;;;;;;5.96;100.00;99093.53;5022810;28;19921;-87
2022/10/24 08:42:46;;;;;;;;;;;;;;;5.88;100.00;99085.91;5038192;28;19936;-86
2022/10/24 08:45:15;;;;;;;;;;;;;;;5.97;100.00;99092.66;5033579;28;19943;-86
2022/10/24 08:47:51;;;;;;;;;;;;;;;5.94;100.00;99087.47;5032005;28;19948;-86
2022/10/24 08:50:17;;;;;;;;;;;;;;;5.89;100.00;99090.25;5041876;28;19921;-86
2022/10/24 08:52:45;;;;;;;;;;;;;;;5.88;100.00;99096.41;5026046;28;19928;-86
2022/10/24 08:55:16;;;;;;;;;;;;;;;5.87;100.00;99102.59;5020103;28;19924;-87
2022/10/24 08:57:46;;;;;;;;;;;;;;;5.90;100.00;99097.22;5039083;28;20299;-86
2022/10/24 09:00:20;;;;;;;;;;;;;;;5.90;100.00;99096.38;5028553;28;19967;-85
2022/10/24 09:02:48;;;;;;;;;;;;;;;5.89;100.00;99095.50;5019662;28;19932;-86
2022/10/24 09:05:13;;;;;;;;;;;;;;;5.86;100.00;99089.50;5022596;28;19921;-85
2022/10/24 09:07:39;;;;;;;;;;;;;;;5.84;100.00;99092.19;5024325;28;20326;-88
2022/10/24 09:10:12;;;;;;;;;;;;;;;5.93;100.00;99091.84;5008178;28;19951;-85
2022/10/24 09:12:38;;;;;;;;;;;;;;;5.91;100.00;99100.72;5009028;28;19921;-87
2022/10/24 09:15:07;;;;;;;;;;;;;;;5.96;100.00;99098.78;5020825;28;19971;-85
2022/10/24 09:17:33;;;;;;;;;;;;;;;5.96;100.00;99104.94;5024233;28;19918;-86
2022/10/24 09:20:17;;;;;;;;;;;;;;;5.99;100.00;99102.19;5014214;28;19925;-86
2022/10/24 09:22:45;;;;;;;;;;;;;;;6.00;100.00;99111.81;5020390;28;19922;-87
2022/10/24 09:25:14;;;;;;;;;;;;;;;5.95;100.00;99107.56;5022228;28;19923;-87
2022/10/24 09:27:40;;;;;;;;;;;;;;;5.97;100.00;99118.97;5018185;28;19932;-86
2022/10/24 09:30:07;;;;;;;;;;;;;;;5.99;100.00;99117.13;5020207;28;20319;-89
2022/10/24 09:32:34;;;;;;;;;;;;;;;6.02;100.00;99110.91;5022005;28;19932;-85
2022/10/24 09:35:02;;;;;;;;;;;;;;;5.95;100.00;99116.34;5003048;28;20393;-84
2022/10/24 09:37:31;;;;;;;;;;;;;;;5.90;100.00;99134.03;5022967;28;20387;-84
2022/10/24 09:40:04;;;;;;;;;;;;;;;5.91;100.00;99137.53;5021570;28;19921;-85
2022/10/24 09:42:30;;;;;;;;;;;;;;;5.92;100.00;99142.75;5021908;28;20032;-84
2022/10/24 09:44:56;;;;;;;;;;;;;;;5.97;100.00;99151.38;5003708;28;20001;-87
2022/10/24 09:47:26;;;;;;;;;;;;;;;6.00;100.00;99155.66;5021709;28;19921;-85
2022/10/24 09:49:52;;;;;;;;;;;;;;;5.99;100.00;99156.56;5001466;28;19929;-85
2022/10/24 09:52:19;;;;;;;;;;;;;;;6.04;100.00;99164.31;5021115;28;19925;-86
2022/10/24 09:54:46;;;;;;;;;;;;;;;6.02;100.00;99166.13;5003950;28;19925;-84
2022/10/24 09:57:11;;;;;;;;;;;;;;;6.10;100.00;99177.25;5002738;28;19928;-86
2022/10/24 09:59:43;;;;;;;;;;;;;;;6.15;100.00;99181.44;5022042;28;20308;-88
2022/10/24 10:02:09;;;;;;;;;;;;;;;6.04;100.00;99193.25;5020556;28;19921;-85
2022/10/24 10:04:34;;;;;;;;;;;;;;;5.95;100.00;99195.25;5004840;28;19918;-86
2022/10/24 10:07:08;;;;;;;;;;;;;;;6.09;100.00;99194.78;5004886;28;20007;-86
2022/10/24 10:09:36;;;;;;;;;;;;;;;6.04;100.00;99187.97;5004095;28;19917;-86
2022/10/24 10:12:01;;;;;;;;;;;;;;;6.04;100.00;99211.66;5003637;28;20862;-88
2022/10/24 10:14:28;;;;;;;;;;;;;;;5.97;100.00;99209.22;5004504;28;20011;-85
2022/10/24 10:16:57;;;;;;;;;;;;;;;6.07;100.00;99216.81;5004730;28;19917;-85
2022/10/24 10:19:23;;;;;;;;;;;;;;;6.06;100.00;99220.34;5003389;28;19932;-84
2022/10/24 10:21:51;;;;;;;;;;;;;;;6.02;100.00;99226.63;5004907;28;19921;-85
2022/10/24 10:24:32;;;;;;;;;;;;;;;6.00;100.00;99229.31;5004355;28;19996;-85
2022/10/24 10:26:57;;;;;;;;;;;;;;;6.05;100.00;99221.25;5002753;28;20341;-85
2022/10/24 10:29:23;;;;;;;;;;;;;;;6.05;100.00;99226.50;5019580;28;20012;-88
2022/10/24 10:31:49;;;;;;;;;;;;;;;6.02;100.00;99224.84;5017000;28;19971;-87
2022/10/24 10:34:22;;;;;;;;;;;;;;;6.15;100.00;99238.44;5018759;28;20372;-87
2022/10/24 10:36:57;;;;;;;;;;;;;;;6.05;100.00;99237.03;5019611;28;19921;-86
2022/10/24 10:39:22;;;;;;;;;;;;;;;6.00;100.00;99235.41;5020090;28;20017;-85
2022/10/24 10:41:55;;;;;;;;;;;;;;;6.05;100.00;99239.66;5001543;28;20057;-88
2022/10/24 10:44:39;;;;;;;;;;;;;;;6.07;100.00;99240.47;4999469;28;20085;-88
2022/10/24 10:47:17;;;;;;;;;;;;;;;6.06;100.00;99229.06;5020183;28;19925;-86
2022/10/24 10:49:44;;;;;;;;;;;;;;;6.03;100.00;99238.84;5002253;28;19940;-86
2022/10/24 10:52:22;;;;;;;;;;;;;;;5.99;100.00;99233.69;5018181;28;20012;-87
2022/10/24 10:54:59;;;;;;;;;;;;;;;6.07;100.00;99229.97;5021415;28;19987;-85
2022/10/24 10:57:37;;;;;;;;;;;;;;;6.01;100.00;99223.13;5019794;28;20395;-88
2022/10/24 11:00:13;;;;;;;;;;;;;;;6.04;100.00;99233.53;5017602;28;19925;-89
2022/10/24 11:02:52;;;;;;;;;;;;;;;6.04;100.00;99240.59;5003465;28;19928;-88
2022/10/24 11:05:39;;;;;;;;;;;;;;;6.00;100.00;99245.94;5002060;28;19921;-89
2022/10/24 11:08:13;;;;;;;;;;;;;;;6.06;100.00;99244.00;5004080;28;20376;-87
2022/10/24 11:10:49;;;;;;;;;;;;;;;6.07;100.00;99249.22;5001408;28;19925;-87
2022/10/24 11:13:18;;;;;;;;;;;;;;;6.09;100.00;99249.16;5000893;28;19925;-88
2022/10/24 11:15:46;;;;;;;;;;;;;;;6.12;100.00;99249.06;5002596;28;19965;-87
2022/10/24 11:18:13;;;;;;;;;;;;;;;6.02;100.00;99242.41;4999430;28;19928;-87
2022/10/24 11:20:58;;;;;;;;;;;;;;;6.03;100.00;99238.84;5014141;28;19921;-88
2022/10/24 11:23:30;;;;;;;;;;;;;;;5.97;100.00;99232.03;4996777;28;19935;-89
2022/10/24 11:26:18;;;;;;;;;;;;;;;5.90;100.00;99235.72;5001561;28;19976;-88
2022/10/24 11:29:16;;;;;;;;;;;;;;;6.03;100.00;99221.31;4995392;28;20445;-86
2022/10/24 11:32:05;;;;;;;;;;;;;;;6.05;100.00;99221.25;4953991;28;19917;-88
2022/10/24 11:34:34;;;;;;;;;;;;;;;6.00;100.00;99210.91;5019842;28;20368;-89
2022/10/24 11:37:11;;;;;;;;;;;;;;;6.12;100.00;99212.25;4998486;28;20377;-88
2022/10/24 11:39:43;;;;;;;;;;;;;;;6.11;100.00;99218.41;5004518;28;20008;-86
2022/10/24 11:42:14;;;;;;;;;;;;;;;6.10;100.00;99198.28;5019486;28;19944;-86
2022/10/24 11:44:48;;;;;;;;;;;;;;;6.09;100.00;99200.03;5010761;28;19961;-86
2022/10/24 11:47:16;;;;;;;;;;;;;;;6.04;100.00;99215.13;5021021;28;19917;-87
2022/10/24 11:49:44;;;;;;;;;;;;;;;13.21;100.00;99194.09;5002658;28;19953;-94
2022/10/24 11:55:28;;;;;;;;;;;;;;;9.19;100.00;99211.50;4984135;28;20371;-89
2022/10/24 11:57:56;;;;;;;;;;;;;;;8.87;100.00;99207.66;5017516;28;19967;-91
2022/10/24 12:00:28;;;;;;;;;;;;;;;8.75;100.00;99205.59;5003114;28;19922;-91
2022/10/24 12:02:53;;;;;;;;;;;;;;;8.69;100.00;99214.63;5003770;28;19917;-91
2022/10/24 12:05:46;;;;;;;;;;;;;;;;;;;;;
2022/10/24 12:08:12;;;;;;;;;;;;;;;8.72;100.00;99199.50;5020950;28;19922;-89
2022/10/24 12:13:49;;;;;;;;;;;;;;;8.76;100.00;99205.50;4972173;28;19925;-90
2022/10/24 12:16:32;;;;;;;;;;;;;;;8.81;100.00;99208.81;5007760;28;19960;-90
2022/10/24 12:19:05;;;;;;;;;;;;;;;8.85;100.00;99202.44;5022310;28;19924;-90
2022/10/24 12:21:38;;;;;;;;;;;;;;;8.90;100.00;99207.50;5005650;28;19917;-92
2022/10/24 12:24:18;;;;;;;;;;;;;;;8.89;100.00;99211.09;5025088;28;19917;-90
2022/10/24 12:26:52;;;;;;;;;;;;;;;8.92;100.00;99216.25;5022860;28;20026;-90
2022/10/24 12:29:24;;;;;;;;;;;;;;;8.97;100.00;99208.13;5023279;28;19925;-90
2022/10/24 12:31:55;;;;;;;;;;;;;;;8.99;100.00;99209.75;5014455;28;19925;-90
2022/10/24 12:34:23;;;;;;;;;;;;;;;9.04;100.00;99201.63;4999206;28;20339;-89
2022/10/24 12:37:06;;;;;;;;;;;;;;;9.05;100.00;99201.53;5005686;28;19921;-91
2022/10/24 12:39:52;;;;;;;;;;;;;;;9.08;100.00;99195.28;5006347;28;20008;-90
2022/10/24 12:42:28;;;;;;;;;;;;;;;9.09;100.00;99197.84;5001004;28;19969;-91
2022/10/24 12:44:59;;;;;;;;;;;;;;;9.11;100.00;99196.91;5005798;28;19925;-89
2022/10/24 12:47:32;;;;;;;;;;;;;;;9.15;100.00;99201.97;5003451;28;19928;-89
2022/10/24 12:50:16;;;;;;;;;;;;;;;9.16;100.00;99197.53;5004909;28;19921;-88
2022/10/24 12:52:47;;;;;;;;;;;;;;;9.16;100.00;99203.69;5005289;28;20404;-89
2022/10/24 12:55:33;;;;;;;;;;;;;;;9.21;100.00;99201.69;5005438;28;19917;-89
2022/10/24 12:57:59;;;;;;;;;;;;;;;9.24;100.00;99203.34;4998866;28;19968;-90
2022/10/24 13:00:29;;;;;;;;;;;;;;;9.26;100.00;99204.97;4985041;28;20019;-87
2022/10/24 13:02:54;;;;;;;;;;;;;;;9.27;100.00;99208.50;4983656;28;20507;-89
2022/10/24 13:05:32;;;;;;;;;;;;;;;9.30;100.00;99210.13;4993547;28;19925;-89
2022/10/24 13:08:06;;;;;;;;;;;;;;;9.33;100.00;99204.69;5001570;28;20371;-89
2022/10/24 13:10:31;;;;;;;;;;;;;;;9.38;100.00;99207.97;5000666;28;19924;-89
2022/10/24 13:13:03;;;;;;;;;;;;;;;9.37;100.00;99199.19;4998183;28;20288;-89
2022/10/24 13:15:43;;;;;;;;;;;;;;;9.40;100.00;99211.41;5000963;28;19921;-89
2022/10/24 13:18:16;;;;;;;;;;;;;;;9.44;100.00;99200.63;5002183;28;19917;-90
2022/10/24 13:20:43;;;;;;;;;;;;;;;9.45;100.00;99199.69;4997167;28;20028;-88
2022/10/24 13:23:23;;;;;;;;;;;;;;;9.48;100.00;99214.56;4994815;28;19922;-89
2022/10/24 13:25:58;;;;;;;;;;;;;;;9.52;100.00;99210.81;5005776;28;20000;-90
2022/10/24 13:28:23;;;;;;;;;;;;;;;9.53;100.00;99207.25;5001125;28;19961;-89
2022/10/24 13:31:18;;;;;;;;;;;;;;;9.51;100.00;99203.81;5008565;28;20339;-94
2022/10/24 13:33:44;;;;;;;;;;;;;;;9.54;100.00;99198.41;5017065;28;19976;-89
2022/10/24 13:36:16;;;;;;;;;;;;;;;9.56;100.00;99203.63;5011634;28;19933;-89
2022/10/24 13:38:54;;;;;;;;;;;;;;;9.58;100.00;99193.81;4995067;28;19921;-89
2022/10/24 13:41:32;;;;;;;;;;;;;;;9.59;100.00;99204.31;5012425;28;20008;-89
2022/10/24 13:44:16;;;;;;;;;;;;;;;9.61;100.00;99210.38;4995739;28;20304;-94
2022/10/24 13:46:50;;;;;;;;;;;;;;;9.63;100.00;99205.88;4995600;28;19918;-90
2022/10/24 13:49:53;;;;;;;;;;;;;;;9.63;100.00;99213.78;4995386;28;19921;-90
2022/10/24 13:52:23;;;;;;;;;;;;;;;9.67;100.00;99218.94;4980628;28;19925;-91
2022/10/24 13:54:55;;;;;;;;;;;;;;;9.73;100.00;99221.28;4996121;28;19983;-91
2022/10/24 13:57:47;;;;;;;;;;;;;;;;;;;;;
2022/10/24 14:03:25;;;;;;;;;;;;;;;9.72;100.00;99222.25;4963172;28;19926;-90
2022/10/24 14:05:58;;;;;;;;;;;;;;;9.70;100.00;99218.81;4971471;28;19918;-91
2022/10/24 14:08:29;;;;;;;;;;;;;;;9.73;100.00;99229.22;4956467;28;20040;-93
2022/10/24 14:11:04;;;;;;;;;;;;;;;;;;;;;
2022/10/24 14:13:41;;;;;;;;;;;;;;;9.74;100.00;99234.44;4969426;28;19940;-90
2022/10/24 14:16:07;;;;;;;;;;;;;;;9.75;100.00;99237.97;4955249;28;19929;-90
2022/10/24 14:18:40;;;;;;;;;;;;;;;9.78;100.00;99235.16;4969726;28;20806;-91
2022/10/24 14:21:20;;;;;;;;;;;;;;;9.79;100.00;99240.38;4949537;28;20409;-92
2022/10/24 14:24:21;;;;;;;;;;;;;;;9.80;100.00;99238.59;4980617;28;19924;-91
2022/10/24 14:26:50;;;;;;;;;;;;;;;9.81;100.00;99249.13;4953449;28;19933;-91
2022/10/24 14:29:23;;;;;;;;;;;;;;;9.82;100.00;99239.38;4973711;28;19918;-91
2022/10/24 14:31:58;;;;;;;;;;;;;;;9.85;100.00;99231.28;4994270;28;19921;-90
2022/10/24 14:34:26;;;;;;;;;;;;;;;9.89;100.00;99232.00;4994816;28;19918;-90
2022/10/24 14:36:54;;;;;;;;;;;;;;;9.88;100.00;99233.78;4993095;28;19921;-90
2022/10/24 14:39:22;;;;;;;;;;;;;;;9.89;100.00;99235.53;5010694;28;19936;-90
2022/10/24 14:41:50;;;;;;;;;;;;;;;9.89;100.00;99235.53;4992473;28;19924;-90
2022/10/24 14:44:17;;;;;;;;;;;;;;;9.94;100.00;99240.56;5012454;28;19921;-89
2022/10/24 14:46:46;;;;;;;;;;;;;;;9.93;100.00;99244.16;4994708;28;19922;-89
2022/10/24 14:49:21;;;;;;;;;;;;;;;9.90;100.00;99236.38;5012527;28;19922;-87
2022/10/24 14:51:51;;;;;;;;;;;;;;;9.93;100.00;99239.72;4996059;28;19968;-87
2022/10/24 14:54:18;;;;;;;;;;;;;;;9.93;100.00;99237.06;4992971;28;19921;-90
2022/10/24 14:56:54;;;;;;;;;;;;;;;9.91;100.00;99236.28;5009179;28;19917;-89
2022/10/24 14:59:29;;;;;;;;;;;;;;;9.96;100.00;99236.06;4996978;28;19936;-90
2022/10/24 15:01:59;;;;;;;;;;;;;;;9.94;100.00;99237.91;5013371;28;19979;-89
2022/10/24 15:04:32;;;;;;;;;;;;;;;11.94;100.00;99231.84;5015768;28;19917;-92
2022/10/24 15:19:21;;;;;;;;;;;;;;;;;;;;;
2022/10/24 15:25:09;;;;;;;;;;;;;;;;;;;;;
2022/10/24 15:30:29;;;;;;;;;;;;;;;10.15;100.00;99236.03;4989984;28;20559;-88
2022/10/24 15:33:08;;;;;;;;;;;;;;;10.14;100.00;99234.28;4999848;28;19923;-92
2022/10/24 15:35:57;;;;;;;;;;;;;;;10.13;100.00;99237.88;5001334;28;20401;-90
2022/10/24 15:38:42;;;;;;;;;;;;;;;;;;;;;
2022/10/24 15:48:00;;;;;;;;;;;;;;;;;;;;;
2022/10/24 15:53:54;;;;;;;;;;;;;;;10.14;100.00;99242.22;5049198;28;19924;-92
2022/10/24 15:59:41;;;;;;;;;;;;;;;10.13;100.00;99236.09;5039751;28;20039;-88
2022/10/24 16:02:14;;;;;;;;;;;;;;;10.11;100.00;99239.75;5037456;28;19924;-90
2022/10/24 16:04:43;;;;;;;;;;;;;;;10.11;100.00;99234.44;5055238;28;19927;-91
2022/10/24 16:07:31;;;;;;;;;;;;;;;10.11;100.00;99234.44;5055107;28;19999;-90
2022/10/24 16:09:56;;;;;;;;;;;;;;;10.11;100.00;99234.44;4983946;28;19981;-88
2022/10/24 16:12:22;;;;;;;;;;;;;;;10.12;100.00;99236.16;4982582;28;20020;-91
2022/10/24 16:15:05;;;;;;;;;;;;;;;10.13;100.00;99238.75;4966851;28;19972;-91
2022/10/24 16:17:40;;;;;;;;;;;;;;;10.13;100.00;99245.81;4983741;28;19922;-90
2022/10/24 16:20:26;;;;;;;;;;;;;;;10.16;100.00;99253.59;4998851;28;20286;-89
2022/10/24 16:23:15;;;;;;;;;;;;;;;10.18;100.00;99257.03;4966952;28;19988;-89
2022/10/24 16:25:55;;;;;;;;;;;;;;;;;;;;;
2022/10/24 16:28:39;;;;;;;;;;;;;;;10.16;100.00;99257.13;4982157;28;19929;-91
2022/10/24 16:31:09;;;;;;;;;;;;;;;10.18;100.00;99257.91;4974480;28;19918;-90
2022/10/24 16:33:40;;;;;;;;;;;;;;;10.18;100.00;99257.03;4984690;28;20352;-91
2022/10/24 16:36:07;;;;;;;;;;;;;;;10.17;100.00;99264.09;4999739;28;20317;-90
2022/10/24 16:38:34;;;;;;;;;;;;;;;10.21;100.00;99263.97;4983782;28;19918;-90
2022/10/24 16:41:11;;;;;;;;;;;;;;;10.21;100.00;99269.25;5002519;28;20268;-90
2022/10/24 16:43:41;;;;;;;;;;;;;;;10.21;100.00;99266.59;5052421;28;19912;-88
2022/10/24 16:46:48;;;;;;;;;;;;;;;10.20;100.00;99272.84;5035651;28;20312;-88
2022/10/24 16:49:32;;;;;;;;;;;;;;;10.18;100.00;99268.47;5053925;28;19967;-91
2022/10/24 16:52:07;;;;;;;;;;;;;;;10.21;100.00;99277.19;5053770;28;20358;-90
2022/10/24 16:54:45;;;;;;;;;;;;;;;10.20;100.00;99272.84;5036422;28;19966;-90
2022/10/24 16:57:21;;;;;;;;;;;;;;;;;;;;;
2022/10/24 16:59:46;;;;;;;;;;;;;;;10.23;100.00;99277.97;5054017;28;20287;-89
2022/10/24 17:02:20;;;;;;;;;;;;;;;10.23;100.00;99276.19;5036529;28;20012;-90
2022/10/24 17:04:46;;;;;;;;;;;;;;;10.26;100.00;99281.34;5052743;28;19912;-88
2022/10/24 17:07:16;;;;;;;;;;;;;;;10.24;100.00;99283.19;5036074;28;19917;-89
2022/10/24 17:09:41;;;;;;;;;;;;;;;10.24;100.00;99283.19;5035830;28;19917;-90
2022/10/24 17:12:30;;;;;;;;;;;;;;;;;;;;;
2022/10/24 17:14:58;;;;;;;;;;;;;;;10.30;100.00;99274.94;5054084;28;19916;-90
2022/10/24 17:17:23;;;;;;;;;;;;;;;10.28;100.00;99276.81;5035922;28;20394;-90
2022/10/24 17:19:49;;;;;;;;;;;;;;;10.30;100.00;99282.91;5035704;28;19956;-88
2022/10/24 17:22:15;;;;;;;;;;;;;;;10.29;100.00;99291.78;5035771;28;19923;-90
2022/10/24 17:24:40;;;;;;;;;;;;;;;10.31;100.00;99289.06;5036050;28;20272;-90
2022/10/24 17:27:10;;;;;;;;;;;;;;;10.30;100.00;99293.47;5034190;28;19917;-88
2022/10/24 17:29:38;;;;;;;;;;;;;;;10.33;100.00;99297.81;5053598;28;20394;-88
2022/10/24 17:32:14;;;;;;;;;;;;;;;10.31;100.00;99292.56;5053394;28;19940;-89
2022/10/24 17:34:53;;;;;;;;;;;;;;;;;;;;;
2022/10/24 17:37:37;;;;;;;;;;;;;;;10.33;100.00;99297.81;5053419;28;20382;-91
2022/10/24 17:40:20;;;;;;;;;;;;;;;10.32;100.00;99307.56;5035435;28;19943;-91
2022/10/24 17:42:49;;;;;;;;;;;;;;;10.33;100.00;99288.06;5052629;28;20318;-93
2022/10/24 17:45:15;;;;;;;;;;;;;;;10.35;100.00;99295.94;5035794;28;19923;-93
2022/10/24 17:47:41;;;;;;;;;;;;;;;10.34;100.00;99288.94;5051553;28;19920;-93
2022/10/24 17:50:06;;;;;;;;;;;;;;;10.33;100.00;99281.94;5053320;28;19924;-92
2022/10/24 17:52:31;;;;;;;;;;;;;;;10.36;100.00;99277.31;5035550;28;20368;-92
2022/10/24 17:54:59;;;;;;;;;;;;;;;10.38;100.00;99276.41;5053188;28;19931;-89
2022/10/24 17:57:25;;;;;;;;;;;;;;;10.39;100.00;99270.16;5034797;28;20030;-89
2022/10/24 17:59:53;;;;;;;;;;;;;;;10.39;100.00;99275.44;5052917;28;20042;-89
2022/10/24 18:02:28;;;;;;;;;;;;;;;10.39;100.00;99276.31;5034919;28;19924;-88
2022/10/24 18:04:56;;;;;;;;;;;;;;;10.40;100.00;99274.53;5034938;28;19917;-88
2022/10/24 18:07:21;;;;;;;;;;;;;;;10.42;100.00;99278.81;5034961;28;19917;-88
2022/10/24 18:09:59;;;;;;;;;;;;;;;;;;;;;
2022/10/24 18:12:25;;;;;;;;;;;;;;;10.43;100.00;99272.56;5050917;28;19927;-89
2022/10/24 18:14:57;;;;;;;;;;;;;;;10.42;100.00;99276.19;5034559;28;20358;-89
2022/10/24 18:17:58;;;;;;;;;;;;;;;10.45;100.00;99280.44;5051749;28;19917;-88
2022/10/24 18:20:26;;;;;;;;;;;;;;;10.46;100.00;99287.47;5051971;28;19916;-89
2022/10/24 18:22:54;;;;;;;;;;;;;;;10.47;100.00;99290.03;5034437;28;19943;-87
2022/10/24 18:25:32;;;;;;;;;;;;;;;;;;;;;
2022/10/24 18:27:57;;;;;;;;;;;;;;;10.48;100.00;99304.13;5050868;28;20374;-89
2022/10/24 18:30:31;;;;;;;;;;;;;;;10.48;100.00;99309.44;5034793;28;20007;-89
2022/10/24 18:32:59;;;;;;;;;;;;;;;10.51;100.00;99310.16;4990101;28;20008;-89
2022/10/24 18:35:31;;;;;;;;;;;;;;;10.51;100.00;99318.09;4990024;28;20000;-88
2022/10/24 18:37:57;;;;;;;;;;;;;;;10.52;100.00;99326.91;4990099;28;19953;-89
2022/10/24 18:40:25;;;;;;;;;;;;;;;10.55;100.00;99326.75;4982301;28;19926;-90
2022/10/24 18:42:56;;;;;;;;;;;;;;;10.55;100.00;99342.63;4969560;28;19996;-89
2022/10/24 18:45:23;;;;;;;;;;;;;;;10.56;100.00;99339.03;4970989;28;20390;-90
2022/10/24 18:47:56;;;;;;;;;;;;;;;10.56;100.00;99344.34;4955053;28;19918;-91
2022/10/24 18:50:22;;;;;;;;;;;;;;;10.58;100.00;99342.50;4954469;28;19945;-88
2022/10/24 18:53:02;;;;;;;;;;;;;;;10.57;100.00;99348.72;4971075;28;20349;-88
2022/10/24 18:55:29;;;;;;;;;;;;;;;10.55;100.00;99355.88;4970489;28;20381;-90
2022/10/24 18:57:54;;;;;;;;;;;;;;;10.54;100.00;99362.09;4961291;28;19953;-90
2022/10/24 19:00:21;;;;;;;;;;;;;;;10.53;100.00;99368.34;4971150;28;19973;-90
2022/10/24 19:02:49;;;;;;;;;;;;;;;10.53;100.00;99373.66;4962895;28;19953;-89
2022/10/24 19:05:37;;;;;;;;;;;;;;;10.52;100.00;99379.88;5029409;28;19917;-89
2022/10/24 19:08:08;;;;;;;;;;;;;;;10.51;100.00;99378.16;5028881;28;19951;-86
2022/10/24 19:10:34;;;;;;;;;;;;;;;10.53;100.00;99386.91;5029518;28;19916;-88
2022/10/24 19:12:59;;;;;;;;;;;;;;;10.51;100.00;99389.63;5032727;28;20480;-87
2022/10/24 19:15:25;;;;;;;;;;;;;;;10.53;100.00;99394.84;5050104;28;19917;-88
2022/10/24 19:17:50;;;;;;;;;;;;;;;10.52;100.00;99393.13;5029464;28;20376;-90
2022/10/24 19:20:17;;;;;;;;;;;;;;;10.52;100.00;99391.31;5033571;28;20314;-87
2022/10/24 19:22:43;;;;;;;;;;;;;;;10.53;100.00;99390.41;5058347;28;19960;-88
2022/10/24 19:25:08;;;;;;;;;;;;;;;10.54;100.00;99399.19;5040321;28;19956;-88
2022/10/24 19:27:36;;;;;;;;;;;;;;;10.54;100.00;99400.03;5057133;28;19967;-92
2022/10/24 19:30:04;;;;;;;;;;;;;;;10.57;100.00;99401.69;5041015;28;19917;-88
2022/10/24 19:32:29;;;;;;;;;;;;;;;10.62;100.00;99398.81;5039525;28;20539;-88
2022/10/24 19:34:55;;;;;;;;;;;;;;;10.61;100.00;99408.56;5040317;28;19991;-88
2022/10/24 19:37:21;;;;;;;;;;;;;;;10.62;100.00;99415.56;5040097;28;19959;-87
2022/10/24 19:39:46;;;;;;;;;;;;;;;10.61;100.00;99403.28;5040199;28;20386;-89
2022/10/24 19:42:11;;;;;;;;;;;;;;;10.61;100.00;99405.03;5038714;28;19921;-87
2022/10/24 19:44:41;;;;;;;;;;;;;;;10.60;100.00;99417.44;5057849;28;19998;-89
2022/10/24 19:47:14;;;;;;;;;;;;;;;10.62;100.00;99420.00;5058056;28;20276;-90
2022/10/24 19:49:39;;;;;;;;;;;;;;;10.63;100.00;99421.75;5056106;28;19960;-88
2022/10/24 19:52:05;;;;;;;;;;;;;;;10.64;100.00;99419.03;5040078;28;19970;-89
2022/10/24 19:54:37;;;;;;;;;;;;;;;10.65;100.00;99419.88;5040231;28;20268;-88
2022/10/24 19:57:05;;;;;;;;;;;;;;;10.67;100.00;99418.88;5038891;28;19963;-89
2022/10/24 19:59:32;;;;;;;;;;;;;;;10.67;100.00;99418.88;5055235;28;19921;-93
2022/10/24 20:02:03;;;;;;;;;;;;;;;10.66;100.00;99421.59;5040116;28;19921;-87
2022/10/24 20:04:38;;;;;;;;;;;;;;;;;;;;;
2022/10/24 20:07:05;;;;;;;;;;;;;;;10.68;100.00;99431.16;5057758;28;19927;-87
2022/10/24 20:09:31;;;;;;;;;;;;;;;10.68;100.00;99433.81;5058081;28;19917;-89
2022/10/24 20:12:16;;;;;;;;;;;;;;;10.68;100.00;99436.47;5056697;28;19970;-91
2022/10/24 20:14:42;;;;;;;;;;;;;;;10.67;100.00;99429.47;5039732;28;20322;-92
2022/10/24 20:17:07;;;;;;;;;;;;;;;10.68;100.00;99431.16;5058221;28;19917;-90
2022/10/24 20:19:38;;;;;;;;;;;;;;;10.70;100.00;99431.09;5040708;28;19943;-91
2022/10/24 20:22:18;;;;;;;;;;;;;;;10.70;100.00;99431.94;5039653;28;20007;-90
2022/10/24 20:24:46;;;;;;;;;;;;;;;10.71;100.00;99431.00;5039716;28;19970;-91
2022/10/24 20:27:13;;;;;;;;;;;;;;;10.72;100.00;99431.88;5056584;28;19916;-94
2022/10/24 20:30:09;;;;;;;;;;;;;;;;;;;;;